Merbein, Australia
Current Conditions -  °F | °C
As of 8:00 AM on Tuesday 23 Dec 2014 (Local Time) from YMIA Reporting Station
Clear Clear  
Wind Chill: 73°   Ceiling: Unl
Heat Index: 73°   Visibility: 6mi
Dew Point: 59°   Wind: 3mph
Humidity: 61%   Direction: 180°S
Pressure: 29.8"   Gusts: NA
Location:  34.17°S, 142.06°E
Report Text: YMIA 222100Z AUTO 18003KT 9999 // NCD 23/15 Q1009
Loading
Personal Weather Stations






























Interactive Weather Map New forecast layout! Learn more

10-Day Weather Forecast

Advertisements
Track Severe Weather on mobile